Ana Sayfa
METAR-TAF:

METAR-TAF

Havaalanları :

Yaş, Romanya

Enlem: 47-10N, Boylam: 027-38E, yükseklik: 102 m

Güncel hava durumu gözlemi

Rapor saat 15:00 UTC de 42 dakika önce yapıldı.
Rüzgar kuzeybatıdan 7 kt, batı/kuzeybatı ve kuzey arasında değişken
Sıcaklık 30°C
Nem 35%
Basınç 1022 hPa
Görüş mesafesi 10 km veya daha fazla
1500 m altında bulut yok ve kümülonimbus yok

METAR: LRIA 241500Z 32007KT 290V360 CAVOK 30/13 Q1022

Saat: 18:42 (15:42 UTC)

Tahmin

Rapor saat 14:00 UTC de 1 saat ve 42 dakika önce yapıldı.
Ayın 24'si saat 15 UTC'den ayın 24'si saat 24 UTC'ye kadar geçerli Tahmin
Rüzgar kuzeybatıdan 8 kt
Görüş mesafesi 10 km veya daha fazla
1500 m altında bulut yok ve kümülonimbus yok

TAF: LRIA 241400Z 2415/2424 32008KT CAVOK

4.000'den fazla havaalanı için hava durumu gözlemleri ve tahminleri (METAR ve TAF raporları).

Kullanılabilir istasyonlar harita üzerinde sarı ve kırmızı noktalarla gösterilir.

İstasyonun adını görmek için fareyi noktanın üzerinde gezdirin.

Sonrasında hava gözlem ve tahminlerini görmek için tıklayın.

Haritayı değiştirmek için: yaklaştırmak için siyah artı işaretli yeşil düğmeye ve uzaklaştırmak için de eksi işaretli düğmeye hızla tıklayın; bitişik haritalar için yeşil okları kullanın.


METAR-TAF: